sensor_id;sensor_type;location;lat;lon;timestamp;P1;durP1;ratioP1;P2;durP2;ratioP2
32038;SDS011;18549;42.286;22.688;2023-02-14T00:01:41;55.87;;;32.33;;
32038;SDS011;18549;42.286;22.688;2023-02-14T00:04:08;54.73;;;30.13;;
32038;SDS011;18549;42.286;22.688;2023-02-14T00:06:35;51.87;;;31.67;;
32038;SDS011;18549;42.286;22.688;2023-02-14T00:09:03;64.47;;;37.20;;
32038;SDS011;18549;42.286;22.688;2023-02-14T00:11:30;77.43;;;46.80;;
32038;SDS011;18549;42.286;22.688;2023-02-14T00:13:59;87.40;;;50.80;;
32038;SDS011;18549;42.286;22.688;2023-02-14T00:16:43;95.53;;;51.73;;
32038;SDS011;18549;42.286;22.688;2023-02-14T00:19:11;127.30;;;65.30;;
32038;SDS011;18549;42.286;22.688;2023-02-14T00:21:39;129.93;;;71.50;;
32038;SDS011;18549;42.286;22.688;2023-02-14T00:24:07;132.13;;;70.80;;
32038;SDS011;18549;42.286;22.688;2023-02-14T00:26:35;117.60;;;72.53;;
32038;SDS011;18549;42.286;22.688;2023-02-14T00:29:05;120.30;;;67.83;;
32038;SDS011;18549;42.286;22.688;2023-02-14T00:31:32;91.77;;;52.93;;
32038;SDS011;18549;42.286;22.688;2023-02-14T00:33:59;104.13;;;57.53;;
32038;SDS011;18549;42.286;22.688;2023-02-14T00:36:27;97.23;;;54.20;;
32038;SDS011;18549;42.286;22.688;2023-02-14T00:38:54;104.22;;;62.72;;
32038;SDS011;18549;42.286;22.688;2023-02-14T00:41:20;98.80;;;55.93;;
32038;SDS011;18549;42.286;22.688;2023-02-14T00:43:48;101.90;;;56.83;;
32038;SDS011;18549;42.286;22.688;2023-02-14T00:46:18;99.93;;;52.83;;
32038;SDS011;18549;42.286;22.688;2023-02-14T00:48:46;105.83;;;54.83;;
32038;SDS011;18549;42.286;22.688;2023-02-14T00:51:13;119.67;;;58.73;;
32038;SDS011;18549;42.286;22.688;2023-02-14T00:53:42;122.93;;;62.13;;
32038;SDS011;18549;42.286;22.688;2023-02-14T00:56:09;120.40;;;60.97;;
32038;SDS011;18549;42.286;22.688;2023-02-14T00:58:36;124.63;;;59.47;;
32038;SDS011;18549;42.286;22.688;2023-02-14T01:01:03;118.87;;;60.40;;
32038;SDS011;18549;42.286;22.688;2023-02-14T01:03:31;135.03;;;66.17;;
32038;SDS011;18549;42.286;22.688;2023-02-14T01:05:58;141.90;;;67.90;;
32038;SDS011;18549;42.286;22.688;2023-02-14T01:08:25;132.30;;;74.87;;
32038;SDS011;18549;42.286;22.688;2023-02-14T01:10:52;156.33;;;79.50;;
32038;SDS011;18549;42.286;22.688;2023-02-14T01:13:19;163.80;;;81.33;;
32038;SDS011;18549;42.286;22.688;2023-02-14T01:15:47;153.07;;;82.27;;
32038;SDS011;18549;42.286;22.688;2023-02-14T01:18:16;152.67;;;80.40;;
32038;SDS011;18549;42.286;22.688;2023-02-14T01:20:45;160.67;;;80.10;;
32038;SDS011;18549;42.286;22.688;2023-02-14T01:23:12;151.00;;;79.13;;
32038;SDS011;18549;42.286;22.688;2023-02-14T01:25:39;142.13;;;79.00;;
32038;SDS011;18549;42.286;22.688;2023-02-14T01:28:05;156.57;;;79.80;;
32038;SDS011;18549;42.286;22.688;2023-02-14T01:30:32;156.87;;;81.07;;
32038;SDS011;18549;42.286;22.688;2023-02-14T01:33:01;149.80;;;77.83;;
32038;SDS011;18549;42.286;22.688;2023-02-14T01:35:27;146.43;;;77.17;;
32038;SDS011;18549;42.286;22.688;2023-02-14T01:37:55;141.93;;;75.53;;
32038;SDS011;18549;42.286;22.688;2023-02-14T01:40:22;143.73;;;78.43;;
32038;SDS011;18549;42.286;22.688;2023-02-14T01:42:49;151.93;;;76.63;;
32038;SDS011;18549;42.286;22.688;2023-02-14T01:45:16;141.57;;;74.60;;
32038;SDS011;18549;42.286;22.688;2023-02-14T01:47:45;127.50;;;69.33;;
32038;SDS011;18549;42.286;22.688;2023-02-14T01:50:17;131.20;;;68.00;;
32038;SDS011;18549;42.286;22.688;2023-02-14T01:52:48;102.70;;;56.30;;
32038;SDS011;18549;42.286;22.688;2023-02-14T01:55:21;124.43;;;71.82;;
32038;SDS011;18549;42.286;22.688;2023-02-14T01:57:52;123.47;;;64.93;;
32038;SDS011;18549;42.286;22.688;2023-02-14T02:00:24;138.73;;;74.50;;
32038;SDS011;18549;42.286;22.688;2023-02-14T02:03:08;149.07;;;77.80;;
32038;SDS011;18549;42.286;22.688;2023-02-14T02:05:37;152.03;;;76.37;;
32038;SDS011;18549;42.286;22.688;2023-02-14T02:08:07;162.87;;;81.63;;
32038;SDS011;18549;42.286;22.688;2023-02-14T02:10:35;157.10;;;80.83;;
32038;SDS011;18549;42.286;22.688;2023-02-14T02:13:04;159.60;;;80.83;;
32038;SDS011;18549;42.286;22.688;2023-02-14T02:15:34;184.17;;;93.13;;
32038;SDS011;18549;42.286;22.688;2023-02-14T02:18:17;199.37;;;97.90;;
32038;SDS011;18549;42.286;22.688;2023-02-14T02:21:01;189.13;;;96.30;;
32038;SDS011;18549;42.286;22.688;2023-02-14T02:23:54;191.57;;;97.63;;
32038;SDS011;18549;42.286;22.688;2023-02-14T02:30:09;194.50;;;101.97;;
32038;SDS011;18549;42.286;22.688;2023-02-14T02:33:25;200.33;;;100.03;;
32038;SDS011;18549;42.286;22.688;2023-02-14T02:39:14;205.60;;;99.23;;
32038;SDS011;18549;42.286;22.688;2023-02-14T02:41:59;210.47;;;108.53;;
32038;SDS011;18549;42.286;22.688;2023-02-14T02:44:35;218.03;;;108.47;;
32038;SDS011;18549;42.286;22.688;2023-02-14T02:47:10;194.60;;;102.37;;
32038;SDS011;18549;42.286;22.688;2023-02-14T02:49:44;197.37;;;94.63;;
32038;SDS011;18549;42.286;22.688;2023-02-14T02:52:36;195.23;;;101.53;;
32038;SDS011;18549;42.286;22.688;2023-02-14T02:55:26;191.83;;;94.27;;
32038;SDS011;18549;42.286;22.688;2023-02-14T02:58:16;145.53;;;80.50;;
32038;SDS011;18549;42.286;22.688;2023-02-14T03:00:44;152.37;;;79.30;;
32038;SDS011;18549;42.286;22.688;2023-02-14T03:03:13;157.23;;;74.70;;
32038;SDS011;18549;42.286;22.688;2023-02-14T03:05:57;135.10;;;70.47;;
32038;SDS011;18549;42.286;22.688;2023-02-14T03:08:26;126.87;;;67.97;;
32038;SDS011;18549;42.286;22.688;2023-02-14T03:10:53;120.67;;;65.43;;
32038;SDS011;18549;42.286;22.688;2023-02-14T03:16:32;100.33;;;55.53;;
32038;SDS011;18549;42.286;22.688;2023-02-14T03:21:58;111.30;;;57.27;;
32038;SDS011;18549;42.286;22.688;2023-02-14T03:24:29;108.73;;;57.17;;
32038;SDS011;18549;42.286;22.688;2023-02-14T03:27:08;108.63;;;58.77;;
32038;SDS011;18549;42.286;22.688;2023-02-14T03:29:42;108.37;;;58.83;;
32038;SDS011;18549;42.286;22.688;2023-02-14T03:32:18;104.77;;;60.77;;
32038;SDS011;18549;42.286;22.688;2023-02-14T03:34:53;101.53;;;57.07;;
32038;SDS011;18549;42.286;22.688;2023-02-14T03:37:27;121.80;;;60.07;;
32038;SDS011;18549;42.286;22.688;2023-02-14T03:40:02;123.23;;;61.13;;
32038;SDS011;18549;42.286;22.688;2023-02-14T03:42:35;123.37;;;62.40;;
32038;SDS011;18549;42.286;22.688;2023-02-14T03:45:07;124.53;;;66.27;;
32038;SDS011;18549;42.286;22.688;2023-02-14T03:47:36;120.53;;;66.27;;
32038;SDS011;18549;42.286;22.688;2023-02-14T03:50:06;140.87;;;70.97;;
32038;SDS011;18549;42.286;22.688;2023-02-14T03:52:35;134.57;;;67.90;;
32038;SDS011;18549;42.286;22.688;2023-02-14T03:55:06;119.13;;;63.90;;
32038;SDS011;18549;42.286;22.688;2023-02-14T03:57:36;125.70;;;67.80;;
32038;SDS011;18549;42.286;22.688;2023-02-14T04:00:09;136.10;;;70.83;;
32038;SDS011;18549;42.286;22.688;2023-02-14T04:02:38;138.87;;;70.10;;
32038;SDS011;18549;42.286;22.688;2023-02-14T04:05:08;151.73;;;78.47;;
32038;SDS011;18549;42.286;22.688;2023-02-14T04:07:42;154.97;;;82.67;;
32038;SDS011;18549;42.286;22.688;2023-02-14T04:10:12;154.37;;;81.67;;
32038;SDS011;18549;42.286;22.688;2023-02-14T04:12:40;155.43;;;81.53;;
32038;SDS011;18549;42.286;22.688;2023-02-14T04:15:07;159.30;;;84.90;;
32038;SDS011;18549;42.286;22.688;2023-02-14T04:17:34;153.77;;;81.90;;
32038;SDS011;18549;42.286;22.688;2023-02-14T04:20:19;164.20;;;80.67;;
32038;SDS011;18549;42.286;22.688;2023-02-14T04:22:46;175.80;;;86.83;;
32038;SDS011;18549;42.286;22.688;2023-02-14T04:25:14;173.17;;;91.27;;
32038;SDS011;18549;42.286;22.688;2023-02-14T04:27:41;161.57;;;86.77;;
32038;SDS011;18549;42.286;22.688;2023-02-14T04:30:08;158.30;;;82.53;;
32038;SDS011;18549;42.286;22.688;2023-02-14T04:32:36;144.83;;;81.87;;
32038;SDS011;18549;42.286;22.688;2023-02-14T04:35:04;148.13;;;79.87;;
32038;SDS011;18549;42.286;22.688;2023-02-14T04:37:31;179.53;;;87.03;;
32038;SDS011;18549;42.286;22.688;2023-02-14T04:39:58;152.83;;;83.83;;
32038;SDS011;18549;42.286;22.688;2023-02-14T04:42:26;162.07;;;88.67;;
32038;SDS011;18549;42.286;22.688;2023-02-14T04:44:53;180.67;;;93.90;;
32038;SDS011;18549;42.286;22.688;2023-02-14T04:47:20;158.73;;;87.23;;
32038;SDS011;18549;42.286;22.688;2023-02-14T04:49:47;177.40;;;90.70;;
32038;SDS011;18549;42.286;22.688;2023-02-14T04:52:13;155.00;;;84.00;;
32038;SDS011;18549;42.286;22.688;2023-02-14T04:54:40;141.43;;;77.53;;
32038;SDS011;18549;42.286;22.688;2023-02-14T04:57:07;135.10;;;74.07;;
32038;SDS011;18549;42.286;22.688;2023-02-14T04:59:35;137.30;;;75.33;;
32038;SDS011;18549;42.286;22.688;2023-02-14T05:02:02;152.40;;;75.30;;
32038;SDS011;18549;42.286;22.688;2023-02-14T05:04:29;166.47;;;83.83;;
32038;SDS011;18549;42.286;22.688;2023-02-14T05:06:56;193.73;;;94.17;;
32038;SDS011;18549;42.286;22.688;2023-02-14T05:09:22;203.63;;;104.07;;
32038;SDS011;18549;42.286;22.688;2023-02-14T05:11:49;204.67;;;105.27;;
32038;SDS011;18549;42.286;22.688;2023-02-14T05:14:16;199.80;;;101.00;;
32038;SDS011;18549;42.286;22.688;2023-02-14T05:16:44;209.10;;;103.63;;
32038;SDS011;18549;42.286;22.688;2023-02-14T05:19:11;203.43;;;102.43;;
32038;SDS011;18549;42.286;22.688;2023-02-14T05:21:38;183.43;;;96.07;;
32038;SDS011;18549;42.286;22.688;2023-02-14T05:24:05;199.07;;;103.97;;
32038;SDS011;18549;42.286;22.688;2023-02-14T05:26:32;186.73;;;97.73;;
32038;SDS011;18549;42.286;22.688;2023-02-14T05:28:59;192.17;;;94.10;;
32038;SDS011;18549;42.286;22.688;2023-02-14T05:31:26;179.80;;;91.67;;
32038;SDS011;18549;42.286;22.688;2023-02-14T05:33:54;175.53;;;96.90;;
32038;SDS011;18549;42.286;22.688;2023-02-14T05:36:20;195.93;;;105.40;;
32038;SDS011;18549;42.286;22.688;2023-02-14T05:38:48;213.20;;;105.07;;
32038;SDS011;18549;42.286;22.688;2023-02-14T05:41:14;177.27;;;89.60;;
32038;SDS011;18549;42.286;22.688;2023-02-14T05:43:41;179.90;;;90.20;;
32038;SDS011;18549;42.286;22.688;2023-02-14T05:46:08;173.37;;;91.80;;
32038;SDS011;18549;42.286;22.688;2023-02-14T05:48:35;183.33;;;98.37;;
32038;SDS011;18549;42.286;22.688;2023-02-14T05:51:04;158.37;;;81.43;;
32038;SDS011;18549;42.286;22.688;2023-02-14T05:53:32;143.90;;;80.93;;
32038;SDS011;18549;42.286;22.688;2023-02-14T05:55:59;119.67;;;61.33;;
32038;SDS011;18549;42.286;22.688;2023-02-14T05:58:26;117.37;;;63.23;;
32038;SDS011;18549;42.286;22.688;2023-02-14T06:00:54;122.77;;;68.90;;
32038;SDS011;18549;42.286;22.688;2023-02-14T06:03:21;171.60;;;80.97;;
32038;SDS011;18549;42.286;22.688;2023-02-14T06:05:48;198.97;;;94.77;;
32038;SDS011;18549;42.286;22.688;2023-02-14T06:08:19;177.17;;;88.77;;
32038;SDS011;18549;42.286;22.688;2023-02-14T06:10:46;165.57;;;89.00;;
32038;SDS011;18549;42.286;22.688;2023-02-14T06:13:23;215.77;;;105.73;;
32038;SDS011;18549;42.286;22.688;2023-02-14T06:15:50;219.27;;;103.00;;
32038;SDS011;18549;42.286;22.688;2023-02-14T06:18:17;178.67;;;99.47;;
32038;SDS011;18549;42.286;22.688;2023-02-14T06:20:44;227.27;;;110.23;;
32038;SDS011;18549;42.286;22.688;2023-02-14T06:23:11;180.57;;;93.50;;
32038;SDS011;18549;42.286;22.688;2023-02-14T06:25:39;187.00;;;98.47;;
32038;SDS011;18549;42.286;22.688;2023-02-14T06:28:06;190.93;;;103.37;;
32038;SDS011;18549;42.286;22.688;2023-02-14T06:30:33;224.80;;;113.17;;
32038;SDS011;18549;42.286;22.688;2023-02-14T06:33:00;222.03;;;115.07;;
32038;SDS011;18549;42.286;22.688;2023-02-14T06:35:26;258.27;;;154.10;;
32038;SDS011;18549;42.286;22.688;2023-02-14T06:37:53;230.67;;;121.10;;
32038;SDS011;18549;42.286;22.688;2023-02-14T06:40:20;222.47;;;119.43;;
32038;SDS011;18549;42.286;22.688;2023-02-14T06:42:49;239.70;;;126.00;;
32038;SDS011;18549;42.286;22.688;2023-02-14T06:45:16;217.67;;;123.73;;
32038;SDS011;18549;42.286;22.688;2023-02-14T06:47:45;222.90;;;123.43;;
32038;SDS011;18549;42.286;22.688;2023-02-14T06:50:12;243.93;;;131.33;;
32038;SDS011;18549;42.286;22.688;2023-02-14T06:52:42;246.80;;;142.93;;
32038;SDS011;18549;42.286;22.688;2023-02-14T06:55:09;277.33;;;155.20;;
32038;SDS011;18549;42.286;22.688;2023-02-14T06:57:37;294.57;;;156.27;;
32038;SDS011;18549;42.286;22.688;2023-02-14T07:00:06;288.97;;;155.07;;
32038;SDS011;18549;42.286;22.688;2023-02-14T07:02:34;279.17;;;152.77;;
32038;SDS011;18549;42.286;22.688;2023-02-14T07:05:01;272.90;;;154.90;;
32038;SDS011;18549;42.286;22.688;2023-02-14T07:07:27;252.83;;;142.47;;
32038;SDS011;18549;42.286;22.688;2023-02-14T07:09:54;228.10;;;128.97;;
32038;SDS011;18549;42.286;22.688;2023-02-14T07:12:21;220.47;;;115.23;;
32038;SDS011;18549;42.286;22.688;2023-02-14T07:14:48;197.47;;;108.93;;
32038;SDS011;18549;42.286;22.688;2023-02-14T07:17:16;168.33;;;96.73;;
32038;SDS011;18549;42.286;22.688;2023-02-14T07:19:43;182.20;;;98.73;;
32038;SDS011;18549;42.286;22.688;2023-02-14T07:22:13;208.00;;;115.60;;
32038;SDS011;18549;42.286;22.688;2023-02-14T07:24:40;233.20;;;138.00;;
32038;SDS011;18549;42.286;22.688;2023-02-14T07:27:07;249.57;;;139.27;;
32038;SDS011;18549;42.286;22.688;2023-02-14T07:29:34;276.67;;;158.77;;
32038;SDS011;18549;42.286;22.688;2023-02-14T07:32:01;282.93;;;159.87;;
32038;SDS011;18549;42.286;22.688;2023-02-14T07:34:30;264.63;;;146.40;;
32038;SDS011;18549;42.286;22.688;2023-02-14T07:36:57;240.80;;;139.73;;
32038;SDS011;18549;42.286;22.688;2023-02-14T07:39:24;247.37;;;136.97;;
32038;SDS011;18549;42.286;22.688;2023-02-14T07:41:50;254.90;;;140.80;;
32038;SDS011;18549;42.286;22.688;2023-02-14T07:44:18;393.17;;;189.93;;
32038;SDS011;18549;42.286;22.688;2023-02-14T07:46:45;300.77;;;164.33;;
32038;SDS011;18549;42.286;22.688;2023-02-14T07:49:11;175.93;;;99.57;;
32038;SDS011;18549;42.286;22.688;2023-02-14T07:51:40;182.80;;;101.13;;
32038;SDS011;18549;42.286;22.688;2023-02-14T07:54:06;234.73;;;140.70;;
32038;SDS011;18549;42.286;22.688;2023-02-14T07:56:33;165.13;;;99.10;;
32038;SDS011;18549;42.286;22.688;2023-02-14T07:59:00;148.70;;;87.77;;
32038;SDS011;18549;42.286;22.688;2023-02-14T08:01:27;155.83;;;92.07;;
32038;SDS011;18549;42.286;22.688;2023-02-14T08:03:54;146.27;;;81.33;;
32038;SDS011;18549;42.286;22.688;2023-02-14T08:06:20;147.43;;;88.13;;
32038;SDS011;18549;42.286;22.688;2023-02-14T08:08:51;137.43;;;82.60;;
32038;SDS011;18549;42.286;22.688;2023-02-14T08:11:18;490.70;;;258.40;;
32038;SDS011;18549;42.286;22.688;2023-02-14T08:13:58;136.80;;;79.33;;
32038;SDS011;18549;42.286;22.688;2023-02-14T08:16:26;146.63;;;84.23;;
32038;SDS011;18549;42.286;22.688;2023-02-14T08:18:53;168.00;;;94.07;;
32038;SDS011;18549;42.286;22.688;2023-02-14T08:21:19;232.77;;;104.67;;
32038;SDS011;18549;42.286;22.688;2023-02-14T08:23:46;163.67;;;78.93;;
32038;SDS011;18549;42.286;22.688;2023-02-14T08:26:14;154.17;;;84.43;;
32038;SDS011;18549;42.286;22.688;2023-02-14T08:28:41;220.40;;;101.63;;
32038;SDS011;18549;42.286;22.688;2023-02-14T08:31:08;113.33;;;69.20;;
32038;SDS011;18549;42.286;22.688;2023-02-14T08:33:36;136.87;;;68.93;;
32038;SDS011;18549;42.286;22.688;2023-02-14T08:36:03;141.93;;;77.70;;
32038;SDS011;18549;42.286;22.688;2023-02-14T08:38:30;110.63;;;66.10;;
32038;SDS011;18549;42.286;22.688;2023-02-14T08:40:58;110.43;;;59.67;;
32038;SDS011;18549;42.286;22.688;2023-02-14T08:43:28;96.67;;;51.27;;
32038;SDS011;18549;42.286;22.688;2023-02-14T08:45:54;100.80;;;54.80;;
32038;SDS011;18549;42.286;22.688;2023-02-14T08:48:21;114.10;;;58.90;;
32038;SDS011;18549;42.286;22.688;2023-02-14T08:50:50;96.37;;;59.00;;
32038;SDS011;18549;42.286;22.688;2023-02-14T08:53:17;81.53;;;48.17;;
32038;SDS011;18549;42.286;22.688;2023-02-14T08:55:46;85.23;;;50.50;;
32038;SDS011;18549;42.286;22.688;2023-02-14T08:58:13;84.37;;;50.10;;
32038;SDS011;18549;42.286;22.688;2023-02-14T09:00:41;93.57;;;55.33;;
32038;SDS011;18549;42.286;22.688;2023-02-14T09:03:08;104.87;;;53.70;;
32038;SDS011;18549;42.286;22.688;2023-02-14T09:05:35;93.07;;;54.87;;
32038;SDS011;18549;42.286;22.688;2023-02-14T09:08:02;95.23;;;54.87;;
32038;SDS011;18549;42.286;22.688;2023-02-14T09:10:29;95.50;;;53.30;;
32038;SDS011;18549;42.286;22.688;2023-02-14T09:12:56;100.90;;;55.67;;
32038;SDS011;18549;42.286;22.688;2023-02-14T09:15:23;101.47;;;58.10;;
32038;SDS011;18549;42.286;22.688;2023-02-14T09:17:51;119.20;;;70.67;;
32038;SDS011;18549;42.286;22.688;2023-02-14T09:20:18;123.03;;;66.13;;
32038;SDS011;18549;42.286;22.688;2023-02-14T09:22:45;114.30;;;66.60;;
32038;SDS011;18549;42.286;22.688;2023-02-14T09:25:13;117.47;;;65.50;;
32038;SDS011;18549;42.286;22.688;2023-02-14T09:27:39;108.37;;;64.33;;
32038;SDS011;18549;42.286;22.688;2023-02-14T09:30:07;121.70;;;68.73;;
32038;SDS011;18549;42.286;22.688;2023-02-14T09:32:35;145.10;;;85.90;;
32038;SDS011;18549;42.286;22.688;2023-02-14T09:35:04;142.80;;;77.03;;
32038;SDS011;18549;42.286;22.688;2023-02-14T09:37:48;141.10;;;83.43;;
32038;SDS011;18549;42.286;22.688;2023-02-14T09:40:16;143.53;;;82.63;;
32038;SDS011;18549;42.286;22.688;2023-02-14T09:42:47;140.03;;;84.43;;
32038;SDS011;18549;42.286;22.688;2023-02-14T09:45:21;130.37;;;78.90;;
32038;SDS011;18549;42.286;22.688;2023-02-14T09:47:53;137.50;;;77.13;;
32038;SDS011;18549;42.286;22.688;2023-02-14T09:50:26;134.37;;;78.83;;
32038;SDS011;18549;42.286;22.688;2023-02-14T09:53:00;170.13;;;100.83;;
32038;SDS011;18549;42.286;22.688;2023-02-14T09:55:32;162.03;;;88.37;;
32038;SDS011;18549;42.286;22.688;2023-02-14T09:58:06;140.37;;;84.17;;
32038;SDS011;18549;42.286;22.688;2023-02-14T10:00:40;157.13;;;90.47;;
32038;SDS011;18549;42.286;22.688;2023-02-14T10:03:15;148.87;;;87.90;;
32038;SDS011;18549;42.286;22.688;2023-02-14T10:06:00;155.90;;;85.77;;
32038;SDS011;18549;42.286;22.688;2023-02-14T10:08:37;144.40;;;82.23;;
32038;SDS011;18549;42.286;22.688;2023-02-14T10:11:13;138.20;;;81.90;;
32038;SDS011;18549;42.286;22.688;2023-02-14T10:13:45;138.03;;;79.80;;
32038;SDS011;18549;42.286;22.688;2023-02-14T10:16:17;130.93;;;72.23;;
32038;SDS011;18549;42.286;22.688;2023-02-14T10:18:49;127.03;;;73.37;;
32038;SDS011;18549;42.286;22.688;2023-02-14T10:21:21;129.83;;;69.30;;
32038;SDS011;18549;42.286;22.688;2023-02-14T10:23:52;116.47;;;71.97;;
32038;SDS011;18549;42.286;22.688;2023-02-14T10:26:25;119.23;;;70.37;;
32038;SDS011;18549;42.286;22.688;2023-02-14T10:28:55;125.23;;;73.57;;
32038;SDS011;18549;42.286;22.688;2023-02-14T10:31:32;137.10;;;75.43;;
32038;SDS011;18549;42.286;22.688;2023-02-14T10:34:03;111.27;;;65.57;;
32038;SDS011;18549;42.286;22.688;2023-02-14T10:36:42;98.13;;;61.63;;
32038;SDS011;18549;42.286;22.688;2023-02-14T10:42:12;104.10;;;56.07;;
32038;SDS011;18549;42.286;22.688;2023-02-14T10:44:49;90.73;;;51.97;;
32038;SDS011;18549;42.286;22.688;2023-02-14T10:47:26;108.70;;;57.03;;
32038;SDS011;18549;42.286;22.688;2023-02-14T10:50:08;102.87;;;61.33;;
32038;SDS011;18549;42.286;22.688;2023-02-14T10:52:42;111.73;;;64.33;;
32038;SDS011;18549;42.286;22.688;2023-02-14T10:55:22;125.13;;;69.57;;
32038;SDS011;18549;42.286;22.688;2023-02-14T10:57:57;102.83;;;58.37;;
32038;SDS011;18549;42.286;22.688;2023-02-14T11:00:27;105.97;;;59.57;;
32038;SDS011;18549;42.286;22.688;2023-02-14T11:02:58;110.80;;;56.20;;
32038;SDS011;18549;42.286;22.688;2023-02-14T11:05:30;117.13;;;59.47;;
32038;SDS011;18549;42.286;22.688;2023-02-14T11:08:05;125.73;;;64.13;;
32038;SDS011;18549;42.286;22.688;2023-02-14T11:10:39;104.80;;;57.43;;
32038;SDS011;18549;42.286;22.688;2023-02-14T11:13:23;105.40;;;61.50;;
32038;SDS011;18549;42.286;22.688;2023-02-14T11:15:55;88.80;;;55.70;;
32038;SDS011;18549;42.286;22.688;2023-02-14T11:18:24;33.87;;;23.60;;
32038;SDS011;18549;42.286;22.688;2023-02-14T11:21:00;26.97;;;18.77;;
32038;SDS011;18549;42.286;22.688;2023-02-14T11:23:33;43.13;;;24.20;;
32038;SDS011;18549;42.286;22.688;2023-02-14T11:26:02;30.43;;;20.63;;
32038;SDS011;18549;42.286;22.688;2023-02-14T11:28:30;37.90;;;24.57;;
32038;SDS011;18549;42.286;22.688;2023-02-14T11:31:00;42.90;;;27.73;;
32038;SDS011;18549;42.286;22.688;2023-02-14T11:33:35;34.93;;;23.53;;
32038;SDS011;18549;42.286;22.688;2023-02-14T11:36:05;44.83;;;27.93;;
32038;SDS011;18549;42.286;22.688;2023-02-14T11:38:38;82.77;;;38.63;;
32038;SDS011;18549;42.286;22.688;2023-02-14T11:41:07;33.00;;;19.80;;
32038;SDS011;18549;42.286;22.688;2023-02-14T11:43:36;43.40;;;22.23;;
32038;SDS011;18549;42.286;22.688;2023-02-14T11:46:06;60.10;;;33.03;;
32038;SDS011;18549;42.286;22.688;2023-02-14T11:48:37;42.93;;;25.17;;
32038;SDS011;18549;42.286;22.688;2023-02-14T11:51:05;17.77;;;14.13;;
32038;SDS011;18549;42.286;22.688;2023-02-14T11:53:38;28.53;;;17.53;;
32038;SDS011;18549;42.286;22.688;2023-02-14T11:56:11;33.60;;;19.73;;
32038;SDS011;18549;42.286;22.688;2023-02-14T11:58:39;47.03;;;26.83;;
32038;SDS011;18549;42.286;22.688;2023-02-14T12:01:11;43.37;;;23.70;;
32038;SDS011;18549;42.286;22.688;2023-02-14T12:03:46;41.80;;;25.40;;
32038;SDS011;18549;42.286;22.688;2023-02-14T12:06:21;30.20;;;20.13;;
32038;SDS011;18549;42.286;22.688;2023-02-14T12:08:50;25.70;;;17.53;;
32038;SDS011;18549;42.286;22.688;2023-02-14T12:11:35;28.63;;;15.47;;
32038;SDS011;18549;42.286;22.688;2023-02-14T12:14:03;23.93;;;16.13;;
32038;SDS011;18549;42.286;22.688;2023-02-14T12:16:30;21.67;;;14.90;;
32038;SDS011;18549;42.286;22.688;2023-02-14T12:19:04;19.83;;;14.57;;
32038;SDS011;18549;42.286;22.688;2023-02-14T12:21:41;14.53;;;12.67;;
32038;SDS011;18549;42.286;22.688;2023-02-14T12:24:19;23.60;;;15.20;;
32038;SDS011;18549;42.286;22.688;2023-02-14T12:26:53;30.43;;;18.43;;
32038;SDS011;18549;42.286;22.688;2023-02-14T12:29:28;19.57;;;14.10;;
32038;SDS011;18549;42.286;22.688;2023-02-14T12:32:00;13.70;;;9.70;;
32038;SDS011;18549;42.286;22.688;2023-02-14T12:34:30;19.80;;;13.63;;
32038;SDS011;18549;42.286;22.688;2023-02-14T12:37:04;21.90;;;13.93;;
32038;SDS011;18549;42.286;22.688;2023-02-14T12:39:40;17.37;;;11.97;;
32038;SDS011;18549;42.286;22.688;2023-02-14T12:42:24;16.33;;;10.97;;
32038;SDS011;18549;42.286;22.688;2023-02-14T12:45:03;18.00;;;12.33;;
32038;SDS011;18549;42.286;22.688;2023-02-14T12:47:38;25.07;;;12.67;;
32038;SDS011;18549;42.286;22.688;2023-02-14T12:50:17;21.27;;;16.20;;
32038;SDS011;18549;42.286;22.688;2023-02-14T12:56:10;24.23;;;16.30;;
32038;SDS011;18549;42.286;22.688;2023-02-14T12:58:48;21.47;;;14.63;;
32038;SDS011;18549;42.286;22.688;2023-02-14T13:01:28;16.83;;;11.23;;
32038;SDS011;18549;42.286;22.688;2023-02-14T13:04:24;17.77;;;12.23;;
32038;SDS011;18549;42.286;22.688;2023-02-14T13:07:06;16.07;;;9.80;;
32038;SDS011;18549;42.286;22.688;2023-02-14T13:09:39;23.70;;;9.53;;
32038;SDS011;18549;42.286;22.688;2023-02-14T13:12:17;22.80;;;11.17;;
32038;SDS011;18549;42.286;22.688;2023-02-14T13:14:56;15.70;;;10.97;;
32038;SDS011;18549;42.286;22.688;2023-02-14T13:17:32;11.77;;;7.03;;
32038;SDS011;18549;42.286;22.688;2023-02-14T13:20:05;14.70;;;7.43;;
32038;SDS011;18549;42.286;22.688;2023-02-14T13:22:48;20.80;;;9.93;;
32038;SDS011;18549;42.286;22.688;2023-02-14T13:25:19;13.63;;;9.80;;
32038;SDS011;18549;42.286;22.688;2023-02-14T13:27:56;12.27;;;8.47;;
32038;SDS011;18549;42.286;22.688;2023-02-14T13:30:24;11.80;;;8.73;;
32038;SDS011;18549;42.286;22.688;2023-02-14T13:32:53;32.07;;;12.43;;
32038;SDS011;18549;42.286;22.688;2023-02-14T13:35:25;14.23;;;11.37;;
32038;SDS011;18549;42.286;22.688;2023-02-14T13:37:54;9.33;;;7.77;;
32038;SDS011;18549;42.286;22.688;2023-02-14T13:40:25;14.87;;;10.90;;
32038;SDS011;18549;42.286;22.688;2023-02-14T13:42:56;23.33;;;16.37;;
32038;SDS011;18549;42.286;22.688;2023-02-14T13:48:19;15.73;;;11.93;;
32038;SDS011;18549;42.286;22.688;2023-02-14T13:50:49;16.50;;;12.60;;
32038;SDS011;18549;42.286;22.688;2023-02-14T13:53:31;15.73;;;11.43;;
32038;SDS011;18549;42.286;22.688;2023-02-14T13:56:00;18.00;;;12.00;;
32038;SDS011;18549;42.286;22.688;2023-02-14T13:58:30;16.97;;;11.13;;
32038;SDS011;18549;42.286;22.688;2023-02-14T14:00:59;15.17;;;11.30;;
32038;SDS011;18549;42.286;22.688;2023-02-14T14:03:57;17.67;;;13.50;;
32038;SDS011;18549;42.286;22.688;2023-02-14T14:06:25;19.53;;;14.60;;
32038;SDS011;18549;42.286;22.688;2023-02-14T14:08:52;15.20;;;11.07;;
32038;SDS011;18549;42.286;22.688;2023-02-14T14:14:31;20.97;;;9.30;;
32038;SDS011;18549;42.286;22.688;2023-02-14T14:17:00;11.60;;;7.77;;
32038;SDS011;18549;42.286;22.688;2023-02-14T14:19:36;21.70;;;14.97;;
32038;SDS011;18549;42.286;22.688;2023-02-14T14:22:06;24.47;;;14.90;;
32038;SDS011;18549;42.286;22.688;2023-02-14T14:24:34;20.77;;;16.23;;
32038;SDS011;18549;42.286;22.688;2023-02-14T14:27:04;16.03;;;12.10;;
32038;SDS011;18549;42.286;22.688;2023-02-14T14:29:41;15.53;;;12.13;;
32038;SDS011;18549;42.286;22.688;2023-02-14T14:32:11;19.07;;;14.60;;
32038;SDS011;18549;42.286;22.688;2023-02-14T14:34:48;24.80;;;16.40;;
32038;SDS011;18549;42.286;22.688;2023-02-14T14:37:17;25.37;;;16.00;;
32038;SDS011;18549;42.286;22.688;2023-02-14T14:39:50;22.40;;;14.43;;
32038;SDS011;18549;42.286;22.688;2023-02-14T14:42:18;20.67;;;14.70;;
32038;SDS011;18549;42.286;22.688;2023-02-14T14:44:48;39.00;;;23.87;;